MUSC

Details ICAO MUSC (SNU)
Name ABEL SANTAMARIA
Region Cuba
Timezone America/Havana (UTC-4.0)
Plans Departing 26
Arriving 56
Stats Elevation 338 ft / 103 m (AMSL)
Location 22.492193° -79.943613°
Runways 1
Magnetic Variation 6.397° W
Sunrise 2018-05-21 10:38:50 UTC / 2018-05-21 06:38:50 Local
Sunset 2018-05-21 23:56:47 UTC / 2018-05-21 19:56:47 Local
Advertisement - Login to hide

Runways

ID Width Length Bearing (true) Bearing (mag) Surface Threshold Offset Overrun Length
08 148 ft / 45 m 9,888 ft / 3,014 m 76.05° 82.45° Asphalt 0 ft / 0 m 0 ft / 0 m
26 148 ft / 45 m 9,888 ft / 3,014 m 256.06° 262.46° Asphalt 0 ft / 0 m 0 ft / 0 m

Map

Weather


0- 5 10 15 20 25 30 35+ Temperature / ° C

Clouds and Precipitation
Forecast for 2018-05-22 00:00 UTC. Updated 2 hours ago

Ground ~20,000 ft ~40,000 ft Winds

METAR

MUSC 220052Z 14006KT 6000 -SHRA BKN012 22/21 Q1016

TAF

TAF AMD MUSC 220000Z 2200/2224 VRB03KT 9000 SCT020 TEMPO 2200/2204 3000 SHRA BKN015 BECMG 2215/2217 12010KT TEMPO 2218/2224 5000 TSRA RA SCT018CB BKN040

Frequencies

Tower 118.10 MHz SANTA CLARA TWR
Warning: Do not use this data for real-world aviation or navigation. No guarantee of current accuracy is given.